This is the latest recevied weather packets stored in our database for station/object W4CKA. If no packets are shown the sender has not sent any weather packets the latest 10 day(s).
| Time | Temp. | Humidity | Pressure | Rain* | Wind** | Luminosity | Snow |
|---|---|---|---|---|---|---|---|
| 1777997423 | 22.22° C | 51% | 1057.2 hPa | 0 mm | - | 378 W/m² | - |
| 1777996818 | 21.67° C | 54% | 1057.2 hPa | 0 mm | - | 445 W/m² | - |
| 1777996216 | 21.67° C | 58% | 1057.5 hPa | 0 mm | - | 389 W/m² | - |
| 1777995615 | 21.67° C | 56% | 1057.6 hPa | 0 mm | - | 391 W/m² | - |
| 1777995015 | 21.67° C | 59% | 1057.6 hPa | 0 mm | - | 432 W/m² | - |
| 1777994413 | 21.11° C | 67% | 1057.5 hPa | 0 mm | - | 653 W/m² | - |
| 1777993811 | 21.11° C | 60% | 1057.7 hPa | 0 mm | - | 524 W/m² | - |
| 1777993210 | 20° C | 63% | 1057.7 hPa | 0 mm | - | 432 W/m² | - |
| 1777992604 | 20° C | 61% | 1057.7 hPa | 0 mm | - | 323 W/m² | - |
| 1777992005 | 20° C | 66% | 1057.6 hPa | 0 mm | - | 461 W/m² | - |
| 1777991405 | 19.44° C | 67% | 1057.6 hPa | 0 mm | - | 478 W/m² | - |
| 1777990805 | 19.44° C | 68% | 1057.6 hPa | 0 mm | - | 444 W/m² | - |
| 1777989603 | 19.44° C | 72% | 1057.6 hPa | 0 mm | - | 384 W/m² | - |
| 1777989002 | 17.78° C | 76% | 1057.6 hPa | 0 mm | - | 436 W/m² | - |
| 1777988401 | 17.22° C | 78% | 1057.7 hPa | 0 mm | - | 372 W/m² | - |
| 1777987800 | 17.22° C | 77% | 1057.6 hPa | 0 mm | - | 336 W/m² | - |
| 1777987194 | 18.33° C | 73% | 1057.6 hPa | 0 mm | - | 236 W/m² | - |
| 1777986595 | 16.67° C | 80% | 1057.7 hPa | 0 mm | - | 259 W/m² | - |
| 1777985990 | 15.56° C | 81% | 1057.6 hPa | 0 mm | - | 165 W/m² | - |
| 1777985389 | 14.44° C | 81% | 1057.5 hPa | 0 mm | - | 158 W/m² | - |
| 1777984787 | 13.33° C | 85% | 1057.4 hPa | 0 mm | - | 133 W/m² | - |
| 1777984186 | 12.22° C | 87% | 1057.4 hPa | 0 mm | - | 139 W/m² | - |
| 1777983586 | 11.67° C | 88% | 1057.4 hPa | 0 mm | - | 116 W/m² | - |
| 1777982985 | 10.56° C | 90% | 1057.3 hPa | 0 mm | - | 89 W/m² | - |
| 1777982380 | 10.56° C | 97% | 1057.2 hPa | 0 mm | - | 72 W/m² | - |
* Rain latest hour (hover to see other rain measurements)
** Current wind speed in m/s (hover to see current wind gust speed)